sensor_id;sensor_type;location;lat;lon;timestamp;temperature;humidity
9383;DHT22;4731;49.708;10.816;2023-07-13T00:01:45;20.80;99.90
9383;DHT22;4731;49.708;10.816;2023-07-13T00:04:15;22.50;99.90
9383;DHT22;4731;49.708;10.816;2023-07-13T00:06:43;20.70;99.90
9383;DHT22;4731;49.708;10.816;2023-07-13T00:09:10;20.80;99.90
9383;DHT22;4731;49.708;10.816;2023-07-13T00:11:40;20.70;99.90
9383;DHT22;4731;49.708;10.816;2023-07-13T00:14:07;20.00;99.90
9383;DHT22;4731;49.708;10.816;2023-07-13T00:16:36;22.30;99.90
9383;DHT22;4731;49.708;10.816;2023-07-13T00:19:04;20.90;99.90
9383;DHT22;4731;49.708;10.816;2023-07-13T00:21:31;20.50;99.90
9383;DHT22;4731;49.708;10.816;2023-07-13T00:23:58;20.40;99.90
9383;DHT22;4731;49.708;10.816;2023-07-13T00:26:27;21.80;99.90
9383;DHT22;4731;49.708;10.816;2023-07-13T00:28:55;18.90;99.90
9383;DHT22;4731;49.708;10.816;2023-07-13T00:31:22;20.30;99.90
9383;DHT22;4731;49.708;10.816;2023-07-13T00:33:48;20.20;99.90
9383;DHT22;4731;49.708;10.816;2023-07-13T00:36:15;20.10;99.90
9383;DHT22;4731;49.708;10.816;2023-07-13T00:38:42;22.90;99.90
9383;DHT22;4731;49.708;10.816;2023-07-13T00:41:10;19.90;99.90
9383;DHT22;4731;49.708;10.816;2023-07-13T00:43:37;20.20;99.90
9383;DHT22;4731;49.708;10.816;2023-07-13T00:46:28;19.90;99.90
9383;DHT22;4731;49.708;10.816;2023-07-13T00:48:56;19.90;99.90
9383;DHT22;4731;49.708;10.816;2023-07-13T00:51:28;19.90;99.90
9383;DHT22;4731;49.708;10.816;2023-07-13T00:54:00;19.90;99.90
9383;DHT22;4731;49.708;10.816;2023-07-13T00:56:28;19.80;99.90
9383;DHT22;4731;49.708;10.816;2023-07-13T00:58:57;19.80;99.90
9383;DHT22;4731;49.708;10.816;2023-07-13T01:01:26;19.70;99.90
9383;DHT22;4731;49.708;10.816;2023-07-13T01:03:53;19.60;99.90
9383;DHT22;4731;49.708;10.816;2023-07-13T01:06:20;19.60;99.90
9383;DHT22;4731;49.708;10.816;2023-07-13T01:08:47;19.40;99.90
9383;DHT22;4731;49.708;10.816;2023-07-13T01:11:18;19.30;99.90
9383;DHT22;4731;49.708;10.816;2023-07-13T01:13:47;19.10;99.90
9383;DHT22;4731;49.708;10.816;2023-07-13T01:16:20;19.00;99.90
9383;DHT22;4731;49.708;10.816;2023-07-13T01:18:51;19.00;99.90
9383;DHT22;4731;49.708;10.816;2023-07-13T01:21:19;18.90;99.90
9383;DHT22;4731;49.708;10.816;2023-07-13T01:26:13;18.80;99.90
9383;DHT22;4731;49.708;10.816;2023-07-13T01:28:40;18.70;99.90
9383;DHT22;4731;49.708;10.816;2023-07-13T01:31:07;18.60;99.90
9383;DHT22;4731;49.708;10.816;2023-07-13T01:33:36;18.60;99.90
9383;DHT22;4731;49.708;10.816;2023-07-13T01:38:33;18.40;99.90
9383;DHT22;4731;49.708;10.816;2023-07-13T01:41:00;20.30;99.90
9383;DHT22;4731;49.708;10.816;2023-07-13T01:43:27;18.30;99.90
9383;DHT22;4731;49.708;10.816;2023-07-13T01:48:21;18.20;99.90
9383;DHT22;4731;49.708;10.816;2023-07-13T01:50:48;18.10;99.90
9383;DHT22;4731;49.708;10.816;2023-07-13T01:53:15;18.10;99.90
9383;DHT22;4731;49.708;10.816;2023-07-13T01:55:43;18.10;99.90
9383;DHT22;4731;49.708;10.816;2023-07-13T01:58:10;18.00;99.90
9383;DHT22;4731;49.708;10.816;2023-07-13T02:00:37;19.80;99.90
9383;DHT22;4731;49.708;10.816;2023-07-13T02:03:04;18.00;99.90
9383;DHT22;4731;49.708;10.816;2023-07-13T02:05:31;19.50;99.90
9383;DHT22;4731;49.708;10.816;2023-07-13T02:07:58;17.90;99.90
9383;DHT22;4731;49.708;10.816;2023-07-13T02:10:24;16.60;99.90
9383;DHT22;4731;49.708;10.816;2023-07-13T02:15:20;17.80;99.90
9383;DHT22;4731;49.708;10.816;2023-07-13T02:17:47;17.40;99.90
9383;DHT22;4731;49.708;10.816;2023-07-13T02:25:08;17.60;99.90
9383;DHT22;4731;49.708;10.816;2023-07-13T02:27:35;17.50;99.90
9383;DHT22;4731;49.708;10.816;2023-07-13T02:30:05;18.10;99.90
9383;DHT22;4731;49.708;10.816;2023-07-13T02:32:32;17.40;99.90
9383;DHT22;4731;49.708;10.816;2023-07-13T02:34:59;17.40;99.90
9383;DHT22;4731;49.708;10.816;2023-07-13T02:37:25;17.30;99.90
9383;DHT22;4731;49.708;10.816;2023-07-13T02:39:52;19.00;99.90
9383;DHT22;4731;49.708;10.816;2023-07-13T02:42:19;14.90;99.90
9383;DHT22;4731;49.708;10.816;2023-07-13T02:44:46;17.20;99.90
9383;DHT22;4731;49.708;10.816;2023-07-13T02:49:42;17.30;99.90
9383;DHT22;4731;49.708;10.816;2023-07-13T02:54:36;17.20;99.90
9383;DHT22;4731;49.708;10.816;2023-07-13T02:57:04;17.20;99.90
9383;DHT22;4731;49.708;10.816;2023-07-13T02:59:30;17.20;99.90
9383;DHT22;4731;49.708;10.816;2023-07-13T03:01:57;18.30;99.90
9383;DHT22;4731;49.708;10.816;2023-07-13T03:04:25;19.40;99.90
9383;DHT22;4731;49.708;10.816;2023-07-13T03:06:52;17.00;99.90
9383;DHT22;4731;49.708;10.816;2023-07-13T03:09:23;17.00;99.90
9383;DHT22;4731;49.708;10.816;2023-07-13T03:14:20;17.00;99.90
9383;DHT22;4731;49.708;10.816;2023-07-13T03:19:14;16.90;99.90
9383;DHT22;4731;49.708;10.816;2023-07-13T03:24:09;16.80;99.90
9383;DHT22;4731;49.708;10.816;2023-07-13T03:31:34;16.70;99.90
9383;DHT22;4731;49.708;10.816;2023-07-13T03:36:29;16.60;99.90
9383;DHT22;4731;49.708;10.816;2023-07-13T03:39:01;16.60;99.90
9383;DHT22;4731;49.708;10.816;2023-07-13T03:51:18;16.90;99.90
9383;DHT22;4731;49.708;10.816;2023-07-13T03:53:46;16.90;99.90
9383;DHT22;4731;49.708;10.816;2023-07-13T03:58:43;17.00;99.90
9383;DHT22;4731;49.708;10.816;2023-07-13T04:01:12;17.00;99.90
9383;DHT22;4731;49.708;10.816;2023-07-13T04:06:12;17.00;99.90
9383;DHT22;4731;49.708;10.816;2023-07-13T04:08:40;18.30;99.90
9383;DHT22;4731;49.708;10.816;2023-07-13T04:11:07;17.00;99.90
9383;DHT22;4731;49.708;10.816;2023-07-13T04:13:35;17.00;99.90
9383;DHT22;4731;49.708;10.816;2023-07-13T04:20:57;17.00;99.90
9383;DHT22;4731;49.708;10.816;2023-07-13T04:25:52;17.00;99.90
9383;DHT22;4731;49.708;10.816;2023-07-13T04:28:20;19.10;99.90
9383;DHT22;4731;49.708;10.816;2023-07-13T04:33:16;17.10;99.90
9383;DHT22;4731;49.708;10.816;2023-07-13T04:40:42;17.50;99.90
9383;DHT22;4731;49.708;10.816;2023-07-13T04:43:11;17.50;99.90
9383;DHT22;4731;49.708;10.816;2023-07-13T04:45:39;17.70;99.90
9383;DHT22;4731;49.708;10.816;2023-07-13T04:50:36;18.10;99.90
9383;DHT22;4731;49.708;10.816;2023-07-13T04:53:04;18.10;99.90
9383;DHT22;4731;49.708;10.816;2023-07-13T04:55:31;17.90;99.90
9383;DHT22;4731;49.708;10.816;2023-07-13T04:57:58;18.40;99.90
9383;DHT22;4731;49.708;10.816;2023-07-13T05:02:56;18.70;99.90
9383;DHT22;4731;49.708;10.816;2023-07-13T05:05:26;18.90;99.90
9383;DHT22;4731;49.708;10.816;2023-07-13T05:07:53;19.00;99.90
9383;DHT22;4731;49.708;10.816;2023-07-13T05:10:20;19.20;99.90
9383;DHT22;4731;49.708;10.816;2023-07-13T05:12:47;19.40;99.90
9383;DHT22;4731;49.708;10.816;2023-07-13T05:15:14;20.00;99.90
9383;DHT22;4731;49.708;10.816;2023-07-13T05:17:41;19.60;99.90
9383;DHT22;4731;49.708;10.816;2023-07-13T05:20:09;19.80;99.90
9383;DHT22;4731;49.708;10.816;2023-07-13T05:22:37;19.90;99.90
9383;DHT22;4731;49.708;10.816;2023-07-13T05:25:05;19.90;99.90
9383;DHT22;4731;49.708;10.816;2023-07-13T05:27:32;20.10;99.90
9383;DHT22;4731;49.708;10.816;2023-07-13T05:30:00;20.20;99.90
9383;DHT22;4731;49.708;10.816;2023-07-13T05:32:27;23.10;99.90
9383;DHT22;4731;49.708;10.816;2023-07-13T05:34:53;20.50;99.90
9383;DHT22;4731;49.708;10.816;2023-07-13T05:37:21;20.40;99.90
9383;DHT22;4731;49.708;10.816;2023-07-13T05:42:16;20.40;99.90
9383;DHT22;4731;49.708;10.816;2023-07-13T05:44:57;20.20;99.90
9383;DHT22;4731;49.708;10.816;2023-07-13T05:49:54;20.30;99.90
9383;DHT22;4731;49.708;10.816;2023-07-13T05:52:21;20.40;99.90
9383;DHT22;4731;49.708;10.816;2023-07-13T05:57:16;20.50;99.90
9383;DHT22;4731;49.708;10.816;2023-07-13T05:59:43;20.50;99.90
9383;DHT22;4731;49.708;10.816;2023-07-13T06:02:10;20.50;99.90
9383;DHT22;4731;49.708;10.816;2023-07-13T06:04:37;20.50;99.90
9383;DHT22;4731;49.708;10.816;2023-07-13T06:07:04;20.70;99.90
9383;DHT22;4731;49.708;10.816;2023-07-13T06:14:26;21.50;99.90
9383;DHT22;4731;49.708;10.816;2023-07-13T06:16:53;21.70;99.90
9383;DHT22;4731;49.708;10.816;2023-07-13T06:19:20;22.10;99.90
9383;DHT22;4731;49.708;10.816;2023-07-13T06:21:47;22.40;99.90
9383;DHT22;4731;49.708;10.816;2023-07-13T06:24:14;22.60;99.90
9383;DHT22;4731;49.708;10.816;2023-07-13T06:26:41;22.40;99.90
9383;DHT22;4731;49.708;10.816;2023-07-13T06:29:09;21.70;99.90
9383;DHT22;4731;49.708;10.816;2023-07-13T06:31:36;21.30;99.90
9383;DHT22;4731;49.708;10.816;2023-07-13T06:34:03;21.10;99.90
9383;DHT22;4731;49.708;10.816;2023-07-13T06:36:30;20.90;99.90
9383;DHT22;4731;49.708;10.816;2023-07-13T06:38:57;21.10;99.90
9383;DHT22;4731;49.708;10.816;2023-07-13T06:41:24;21.50;99.90
9383;DHT22;4731;49.708;10.816;2023-07-13T06:43:51;22.10;99.90
9383;DHT22;4731;49.708;10.816;2023-07-13T06:46:20;22.30;99.90
9383;DHT22;4731;49.708;10.816;2023-07-13T06:48:47;22.30;99.90
9383;DHT22;4731;49.708;10.816;2023-07-13T06:51:14;23.60;99.90
9383;DHT22;4731;49.708;10.816;2023-07-13T06:53:41;22.40;99.90
9383;DHT22;4731;49.708;10.816;2023-07-13T06:56:10;22.80;99.90
9383;DHT22;4731;49.708;10.816;2023-07-13T06:58:37;22.80;99.90
9383;DHT22;4731;49.708;10.816;2023-07-13T07:01:04;22.70;99.90
9383;DHT22;4731;49.708;10.816;2023-07-13T07:03:33;22.70;99.90
9383;DHT22;4731;49.708;10.816;2023-07-13T07:06:13;25.80;99.90
9383;DHT22;4731;49.708;10.816;2023-07-13T07:11:11;22.60;99.90
9383;DHT22;4731;49.708;10.816;2023-07-13T07:13:38;22.50;99.90
9383;DHT22;4731;49.708;10.816;2023-07-13T07:16:05;23.60;99.90
9383;DHT22;4731;49.708;10.816;2023-07-13T07:21:00;23.50;99.90
9383;DHT22;4731;49.708;10.816;2023-07-13T07:23:27;22.90;99.90
9383;DHT22;4731;49.708;10.816;2023-07-13T07:25:54;23.10;99.90
9383;DHT22;4731;49.708;10.816;2023-07-13T07:28:21;23.30;99.90
9383;DHT22;4731;49.708;10.816;2023-07-13T07:30:51;23.60;99.90
9383;DHT22;4731;49.708;10.816;2023-07-13T07:33:18;24.00;99.90
9383;DHT22;4731;49.708;10.816;2023-07-13T07:35:46;23.90;99.90
9383;DHT22;4731;49.708;10.816;2023-07-13T07:38:14;24.00;99.90
9383;DHT22;4731;49.708;10.816;2023-07-13T07:40:41;24.00;99.90
9383;DHT22;4731;49.708;10.816;2023-07-13T07:43:08;24.00;99.90
9383;DHT22;4731;49.708;10.816;2023-07-13T07:45:37;23.90;99.90
9383;DHT22;4731;49.708;10.816;2023-07-13T07:48:04;23.80;99.90
9383;DHT22;4731;49.708;10.816;2023-07-13T07:50:31;24.20;99.90
9383;DHT22;4731;49.708;10.816;2023-07-13T07:55:28;24.40;99.90
9383;DHT22;4731;49.708;10.816;2023-07-13T07:57:56;24.40;99.90
9383;DHT22;4731;49.708;10.816;2023-07-13T08:00:23;24.30;99.90
9383;DHT22;4731;49.708;10.816;2023-07-13T08:02:52;25.00;99.90
9383;DHT22;4731;49.708;10.816;2023-07-13T08:05:20;24.90;99.90
9383;DHT22;4731;49.708;10.816;2023-07-13T08:07:47;25.00;99.90
9383;DHT22;4731;49.708;10.816;2023-07-13T08:10:15;25.10;99.90
9383;DHT22;4731;49.708;10.816;2023-07-13T08:15:17;25.10;99.90
9383;DHT22;4731;49.708;10.816;2023-07-13T08:17:46;24.90;99.90
9383;DHT22;4731;49.708;10.816;2023-07-13T08:20:13;24.70;99.90
9383;DHT22;4731;49.708;10.816;2023-07-13T08:22:40;24.70;99.90
9383;DHT22;4731;49.708;10.816;2023-07-13T08:25:07;24.80;99.90
9383;DHT22;4731;49.708;10.816;2023-07-13T08:30:03;25.00;99.90
9383;DHT22;4731;49.708;10.816;2023-07-13T08:32:31;24.60;99.90
9383;DHT22;4731;49.708;10.816;2023-07-13T08:37:25;24.60;99.90
9383;DHT22;4731;49.708;10.816;2023-07-13T08:39:53;24.50;99.90
9383;DHT22;4731;49.708;10.816;2023-07-13T08:42:32;24.60;99.90
9383;DHT22;4731;49.708;10.816;2023-07-13T08:45:07;25.70;99.90
9383;DHT22;4731;49.708;10.816;2023-07-13T08:47:39;24.70;99.90
9383;DHT22;4731;49.708;10.816;2023-07-13T08:50:11;24.90;99.90
9383;DHT22;4731;49.708;10.816;2023-07-13T08:52:40;24.60;99.90
9383;DHT22;4731;49.708;10.816;2023-07-13T08:55:13;24.10;99.90
9383;DHT22;4731;49.708;10.816;2023-07-13T08:57:41;24.40;99.90
9383;DHT22;4731;49.708;10.816;2023-07-13T09:00:12;24.80;99.90
9383;DHT22;4731;49.708;10.816;2023-07-13T09:02:45;24.60;99.90
9383;DHT22;4731;49.708;10.816;2023-07-13T09:05:14;24.90;99.90
9383;DHT22;4731;49.708;10.816;2023-07-13T09:07:55;25.00;99.90
9383;DHT22;4731;49.708;10.816;2023-07-13T09:10:28;25.60;99.90
9383;DHT22;4731;49.708;10.816;2023-07-13T09:13:06;25.30;99.90
9383;DHT22;4731;49.708;10.816;2023-07-13T09:15:39;25.70;99.90
9383;DHT22;4731;49.708;10.816;2023-07-13T09:18:11;25.90;99.90
9383;DHT22;4731;49.708;10.816;2023-07-13T09:20:44;26.20;99.90
9383;DHT22;4731;49.708;10.816;2023-07-13T09:23:15;26.50;99.90
9383;DHT22;4731;49.708;10.816;2023-07-13T09:25:45;26.60;99.90
9383;DHT22;4731;49.708;10.816;2023-07-13T09:28:16;26.50;99.90
9383;DHT22;4731;49.708;10.816;2023-07-13T09:30:51;26.30;99.90
9383;DHT22;4731;49.708;10.816;2023-07-13T09:33:18;26.30;99.90
9383;DHT22;4731;49.708;10.816;2023-07-13T09:38:16;26.80;99.90
9383;DHT22;4731;49.708;10.816;2023-07-13T09:40:49;27.10;99.70
9383;DHT22;4731;49.708;10.816;2023-07-13T09:43:20;26.80;99.90
9383;DHT22;4731;49.708;10.816;2023-07-13T09:48:21;26.70;99.60
9383;DHT22;4731;49.708;10.816;2023-07-13T09:50:54;26.90;98.40
9383;DHT22;4731;49.708;10.816;2023-07-13T09:58:26;26.50;97.50
9383;DHT22;4731;49.708;10.816;2023-07-13T10:01:00;26.80;98.40
9383;DHT22;4731;49.708;10.816;2023-07-13T10:03:30;27.70;97.00
9383;DHT22;4731;49.708;10.816;2023-07-13T10:06:12;27.60;97.40
9383;DHT22;4731;49.708;10.816;2023-07-13T10:08:39;27.80;96.40
9383;DHT22;4731;49.708;10.816;2023-07-13T10:11:11;27.80;97.10
9383;DHT22;4731;49.708;10.816;2023-07-13T10:13:43;27.80;96.90
9383;DHT22;4731;49.708;10.816;2023-07-13T10:16:12;27.60;96.40
9383;DHT22;4731;49.708;10.816;2023-07-13T10:18:46;27.40;96.30
9383;DHT22;4731;49.708;10.816;2023-07-13T10:21:16;28.40;96.10
9383;DHT22;4731;49.708;10.816;2023-07-13T10:23:45;28.30;96.40
9383;DHT22;4731;49.708;10.816;2023-07-13T10:26:18;28.80;95.70
9383;DHT22;4731;49.708;10.816;2023-07-13T10:28:51;29.10;95.30
9383;DHT22;4731;49.708;10.816;2023-07-13T10:31:25;28.10;94.30
9383;DHT22;4731;49.708;10.816;2023-07-13T10:33:53;27.40;96.10
9383;DHT22;4731;49.708;10.816;2023-07-13T10:36:29;27.00;96.30
9383;DHT22;4731;49.708;10.816;2023-07-13T10:38:59;27.10;96.50
9383;DHT22;4731;49.708;10.816;2023-07-13T10:41:30;27.60;96.10
9383;DHT22;4731;49.708;10.816;2023-07-13T10:43:59;27.80;95.90
9383;DHT22;4731;49.708;10.816;2023-07-13T10:46:28;27.90;94.70
9383;DHT22;4731;49.708;10.816;2023-07-13T10:49:00;28.10;94.00
9383;DHT22;4731;49.708;10.816;2023-07-13T10:54:19;27.90;94.70
9383;DHT22;4731;49.708;10.816;2023-07-13T10:56:50;28.10;94.90
9383;DHT22;4731;49.708;10.816;2023-07-13T10:59:20;28.00;94.50
9383;DHT22;4731;49.708;10.816;2023-07-13T11:02:00;27.60;94.20
9383;DHT22;4731;49.708;10.816;2023-07-13T11:04:40;27.50;94.30
9383;DHT22;4731;49.708;10.816;2023-07-13T11:07:16;26.50;95.70
9383;DHT22;4731;49.708;10.816;2023-07-13T11:09:53;26.40;96.00
9383;DHT22;4731;49.708;10.816;2023-07-13T11:12:54;27.40;96.10
9383;DHT22;4731;49.708;10.816;2023-07-13T11:15:32;27.60;96.00
9383;DHT22;4731;49.708;10.816;2023-07-13T11:18:04;27.80;94.70
9383;DHT22;4731;49.708;10.816;2023-07-13T11:20:37;27.00;94.80
9383;DHT22;4731;49.708;10.816;2023-07-13T11:23:30;27.20;94.80
9383;DHT22;4731;49.708;10.816;2023-07-13T11:28:30;27.30;95.40
9383;DHT22;4731;49.708;10.816;2023-07-13T11:31:14;27.30;96.20
9383;DHT22;4731;49.708;10.816;2023-07-13T11:33:58;26.90;96.30
9383;DHT22;4731;49.708;10.816;2023-07-13T11:36:36;26.60;95.60
9383;DHT22;4731;49.708;10.816;2023-07-13T11:39:16;27.70;97.20
9383;DHT22;4731;49.708;10.816;2023-07-13T11:41:49;26.70;97.60
9383;DHT22;4731;49.708;10.816;2023-07-13T11:44:18;26.70;97.90
9383;DHT22;4731;49.708;10.816;2023-07-13T11:46:47;27.90;95.60
9383;DHT22;4731;49.708;10.816;2023-07-13T11:49:21;27.90;95.50
9383;DHT22;4731;49.708;10.816;2023-07-13T11:51:49;27.40;94.80
9383;DHT22;4731;49.708;10.816;2023-07-13T11:54:24;27.40;96.40
9383;DHT22;4731;49.708;10.816;2023-07-13T11:59:19;27.30;95.20
9383;DHT22;4731;49.708;10.816;2023-07-13T12:01:50;27.00;96.10
9383;DHT22;4731;49.708;10.816;2023-07-13T12:04:22;26.70;96.00
9383;DHT22;4731;49.708;10.816;2023-07-13T12:06:57;26.70;96.70
9383;DHT22;4731;49.708;10.816;2023-07-13T12:09:27;26.10;96.10
9383;DHT22;4731;49.708;10.816;2023-07-13T12:11:57;27.50;94.80
9383;DHT22;4731;49.708;10.816;2023-07-13T12:19:23;28.00;95.40
9383;DHT22;4731;49.708;10.816;2023-07-13T12:21:54;28.00;95.70
9383;DHT22;4731;49.708;10.816;2023-07-13T12:24:22;28.30;95.30
9383;DHT22;4731;49.708;10.816;2023-07-13T12:26:53;28.40;95.90
9383;DHT22;4731;49.708;10.816;2023-07-13T12:29:21;28.60;94.60
9383;DHT22;4731;49.708;10.816;2023-07-13T12:31:49;28.40;95.90
9383;DHT22;4731;49.708;10.816;2023-07-13T12:34:19;28.20;94.20
9383;DHT22;4731;49.708;10.816;2023-07-13T12:36:50;27.50;94.80
9383;DHT22;4731;49.708;10.816;2023-07-13T12:39:21;27.10;96.10
9383;DHT22;4731;49.708;10.816;2023-07-13T12:41:53;26.50;96.90
9383;DHT22;4731;49.708;10.816;2023-07-13T12:44:26;26.50;97.00
9383;DHT22;4731;49.708;10.816;2023-07-13T12:46:57;24.60;97.90
9383;DHT22;4731;49.708;10.816;2023-07-13T12:49:31;26.70;98.60
9383;DHT22;4731;49.708;10.816;2023-07-13T12:52:09;26.70;96.70
9383;DHT22;4731;49.708;10.816;2023-07-13T12:57:16;26.10;97.40
9383;DHT22;4731;49.708;10.816;2023-07-13T13:02:23;26.80;96.50
9383;DHT22;4731;49.708;10.816;2023-07-13T13:04:53;27.10;96.80
9383;DHT22;4731;49.708;10.816;2023-07-13T13:14:45;27.10;95.10
9383;DHT22;4731;49.708;10.816;2023-07-13T13:17:19;28.60;96.70
9383;DHT22;4731;49.708;10.816;2023-07-13T13:19:47;27.40;96.00
9383;DHT22;4731;49.708;10.816;2023-07-13T13:22:30;26.80;97.00
9383;DHT22;4731;49.708;10.816;2023-07-13T13:25:00;26.90;96.50
9383;DHT22;4731;49.708;10.816;2023-07-13T13:27:33;27.20;96.50
9383;DHT22;4731;49.708;10.816;2023-07-13T13:30:00;27.20;96.70
9383;DHT22;4731;49.708;10.816;2023-07-13T13:32:27;27.60;95.30
9383;DHT22;4731;49.708;10.816;2023-07-13T13:37:23;28.00;94.50
9383;DHT22;4731;49.708;10.816;2023-07-13T13:39:53;28.00;95.20
9383;DHT22;4731;49.708;10.816;2023-07-13T13:42:20;28.00;96.10
9383;DHT22;4731;49.708;10.816;2023-07-13T13:47:26;27.40;95.10
9383;DHT22;4731;49.708;10.816;2023-07-13T13:49:56;27.60;95.30
9383;DHT22;4731;49.708;10.816;2023-07-13T13:57:24;27.60;94.80
9383;DHT22;4731;49.708;10.816;2023-07-13T14:02:26;27.60;93.50
9383;DHT22;4731;49.708;10.816;2023-07-13T14:04:56;27.50;94.10
9383;DHT22;4731;49.708;10.816;2023-07-13T14:09:52;27.30;94.10
9383;DHT22;4731;49.708;10.816;2023-07-13T14:12:21;27.20;94.00
9383;DHT22;4731;49.708;10.816;2023-07-13T14:14:51;29.40;94.80
9383;DHT22;4731;49.708;10.816;2023-07-13T14:17:22;27.10;94.00
9383;DHT22;4731;49.708;10.816;2023-07-13T14:19:50;27.10;94.60
9383;DHT22;4731;49.708;10.816;2023-07-13T14:22:23;27.40;95.80
9383;DHT22;4731;49.708;10.816;2023-07-13T14:27:24;27.90;95.00
9383;DHT22;4731;49.708;10.816;2023-07-13T14:29:53;28.10;94.50
9383;DHT22;4731;49.708;10.816;2023-07-13T14:32:20;27.60;94.10
9383;DHT22;4731;49.708;10.816;2023-07-13T14:37:14;27.70;93.70
9383;DHT22;4731;49.708;10.816;2023-07-13T14:39:43;27.60;94.10
9383;DHT22;4731;49.708;10.816;2023-07-13T14:42:10;27.60;94.10
9383;DHT22;4731;49.708;10.816;2023-07-13T14:44:38;25.10;94.00
9383;DHT22;4731;49.708;10.816;2023-07-13T14:47:07;27.40;94.10
9383;DHT22;4731;49.708;10.816;2023-07-13T14:49:36;27.30;94.80
9383;DHT22;4731;49.708;10.816;2023-07-13T14:52:11;27.30;94.60
9383;DHT22;4731;49.708;10.816;2023-07-13T14:54:38;27.30;94.40
9383;DHT22;4731;49.708;10.816;2023-07-13T14:57:09;26.90;94.60
9383;DHT22;4731;49.708;10.816;2023-07-13T15:02:16;26.80;95.80
9383;DHT22;4731;49.708;10.816;2023-07-13T15:07:14;26.80;96.20
9383;DHT22;4731;49.708;10.816;2023-07-13T15:09:43;26.80;96.00
9383;DHT22;4731;49.708;10.816;2023-07-13T15:12:10;26.80;96.20
9383;DHT22;4731;49.708;10.816;2023-07-13T15:14:38;26.70;96.40
9383;DHT22;4731;49.708;10.816;2023-07-13T15:17:08;26.90;96.60
9383;DHT22;4731;49.708;10.816;2023-07-13T15:22:14;25.50;95.20
9383;DHT22;4731;49.708;10.816;2023-07-13T15:27:12;27.00;95.50
9383;DHT22;4731;49.708;10.816;2023-07-13T15:32:12;26.80;95.70
9383;DHT22;4731;49.708;10.816;2023-07-13T15:37:13;26.80;96.90
9383;DHT22;4731;49.708;10.816;2023-07-13T15:42:13;25.90;96.60
9383;DHT22;4731;49.708;10.816;2023-07-13T15:47:10;25.70;98.20
9383;DHT22;4731;49.708;10.816;2023-07-13T15:49:38;25.80;98.20
9383;DHT22;4731;49.708;10.816;2023-07-13T15:52:10;26.70;99.40
9383;DHT22;4731;49.708;10.816;2023-07-13T15:54:38;25.70;98.30
9383;DHT22;4731;49.708;10.816;2023-07-13T15:57:09;26.10;99.50
9383;DHT22;4731;49.708;10.816;2023-07-13T15:59:37;25.70;98.50
9383;DHT22;4731;49.708;10.816;2023-07-13T16:02:12;25.70;98.20
9383;DHT22;4731;49.708;10.816;2023-07-13T16:04:41;27.30;99.00
9383;DHT22;4731;49.708;10.816;2023-07-13T16:07:10;25.50;98.40
9383;DHT22;4731;49.708;10.816;2023-07-13T16:09:38;25.50;97.50
9383;DHT22;4731;49.708;10.816;2023-07-13T16:12:09;25.50;98.20
9383;DHT22;4731;49.708;10.816;2023-07-13T16:14:37;25.50;98.20
9383;DHT22;4731;49.708;10.816;2023-07-13T16:17:05;25.40;99.10
9383;DHT22;4731;49.708;10.816;2023-07-13T16:19:32;25.50;99.60
9383;DHT22;4731;49.708;10.816;2023-07-13T16:21:59;25.50;98.70
9383;DHT22;4731;49.708;10.816;2023-07-13T16:24:28;26.90;98.40
9383;DHT22;4731;49.708;10.816;2023-07-13T16:26:57;25.60;99.30
9383;DHT22;4731;49.708;10.816;2023-07-13T16:29:29;25.60;97.80
9383;DHT22;4731;49.708;10.816;2023-07-13T16:32:00;25.60;97.70
9383;DHT22;4731;49.708;10.816;2023-07-13T16:34:28;25.40;99.20
9383;DHT22;4731;49.708;10.816;2023-07-13T16:36:57;25.30;99.50
9383;DHT22;4731;49.708;10.816;2023-07-13T16:39:29;25.20;99.90
9383;DHT22;4731;49.708;10.816;2023-07-13T16:41:58;25.00;99.90
9383;DHT22;4731;49.708;10.816;2023-07-13T16:44:26;25.20;99.20
9383;DHT22;4731;49.708;10.816;2023-07-13T16:46:54;25.50;99.90
9383;DHT22;4731;49.708;10.816;2023-07-13T16:49:28;25.50;99.90
9383;DHT22;4731;49.708;10.816;2023-07-13T16:51:56;25.50;99.90
9383;DHT22;4731;49.708;10.816;2023-07-13T16:54:30;25.40;99.20
9383;DHT22;4731;49.708;10.816;2023-07-13T16:56:59;26.90;99.90
9383;DHT22;4731;49.708;10.816;2023-07-13T16:59:30;25.30;98.70
9383;DHT22;4731;49.708;10.816;2023-07-13T17:01:59;25.90;99.40
9383;DHT22;4731;49.708;10.816;2023-07-13T17:04:27;25.00;97.80
9383;DHT22;4731;49.708;10.816;2023-07-13T17:06:55;25.00;98.00
9383;DHT22;4731;49.708;10.816;2023-07-13T17:09:23;24.60;98.10
9383;DHT22;4731;49.708;10.816;2023-07-13T17:14:21;24.40;99.10
9383;DHT22;4731;49.708;10.816;2023-07-13T17:16:52;24.40;99.60
9383;DHT22;4731;49.708;10.816;2023-07-13T17:19:28;24.30;99.00
9383;DHT22;4731;49.708;10.816;2023-07-13T17:21:56;24.20;99.10
9383;DHT22;4731;49.708;10.816;2023-07-13T17:24:27;24.20;99.90
9383;DHT22;4731;49.708;10.816;2023-07-13T17:29:23;24.30;99.90
9383;DHT22;4731;49.708;10.816;2023-07-13T17:31:50;24.10;99.90
9383;DHT22;4731;49.708;10.816;2023-07-13T17:34:17;24.10;99.90
9383;DHT22;4731;49.708;10.816;2023-07-13T17:39:14;24.10;99.90
9383;DHT22;4731;49.708;10.816;2023-07-13T17:41:41;24.30;99.90
9383;DHT22;4731;49.708;10.816;2023-07-13T17:44:12;24.10;99.90
9383;DHT22;4731;49.708;10.816;2023-07-13T17:46:41;24.00;99.90
9383;DHT22;4731;49.708;10.816;2023-07-13T17:49:17;24.10;99.90
9383;DHT22;4731;49.708;10.816;2023-07-13T17:51:48;24.00;99.90
9383;DHT22;4731;49.708;10.816;2023-07-13T17:54:17;23.90;99.90
9383;DHT22;4731;49.708;10.816;2023-07-13T17:56:44;23.80;99.90
9383;DHT22;4731;49.708;10.816;2023-07-13T17:59:13;23.90;99.90
9383;DHT22;4731;49.708;10.816;2023-07-13T18:01:40;23.90;99.90
9383;DHT22;4731;49.708;10.816;2023-07-13T18:04:09;23.70;99.90
9383;DHT22;4731;49.708;10.816;2023-07-13T18:06:39;23.70;99.90
9383;DHT22;4731;49.708;10.816;2023-07-13T18:09:15;23.60;99.90
9383;DHT22;4731;49.708;10.816;2023-07-13T18:11:43;23.90;99.90
9383;DHT22;4731;49.708;10.816;2023-07-13T18:14:10;23.60;99.90
9383;DHT22;4731;49.708;10.816;2023-07-13T18:16:39;23.50;99.90
9383;DHT22;4731;49.708;10.816;2023-07-13T18:19:21;24.50;99.90
9383;DHT22;4731;49.708;10.816;2023-07-13T18:21:51;23.40;99.90
9383;DHT22;4731;49.708;10.816;2023-07-13T18:24:18;23.40;99.90
9383;DHT22;4731;49.708;10.816;2023-07-13T18:26:45;23.30;99.90
9383;DHT22;4731;49.708;10.816;2023-07-13T18:29:11;23.20;99.90
9383;DHT22;4731;49.708;10.816;2023-07-13T18:34:09;23.10;99.90
9383;DHT22;4731;49.708;10.816;2023-07-13T18:36:37;23.00;99.90
9383;DHT22;4731;49.708;10.816;2023-07-13T18:39:05;23.60;99.90
9383;DHT22;4731;49.708;10.816;2023-07-13T18:41:33;22.80;99.90
9383;DHT22;4731;49.708;10.816;2023-07-13T18:44:00;22.70;99.90
9383;DHT22;4731;49.708;10.816;2023-07-13T18:46:29;22.60;99.90
9383;DHT22;4731;49.708;10.816;2023-07-13T18:49:00;22.50;99.90
9383;DHT22;4731;49.708;10.816;2023-07-13T18:51:27;22.40;99.90
9383;DHT22;4731;49.708;10.816;2023-07-13T18:53:54;22.30;99.90
9383;DHT22;4731;49.708;10.816;2023-07-13T18:56:21;22.20;99.90
9383;DHT22;4731;49.708;10.816;2023-07-13T18:58:49;23.40;99.90
9383;DHT22;4731;49.708;10.816;2023-07-13T19:01:19;22.00;99.90